Time;durP1;ratioP1;P1;durP2;ratioP2;P2;SDS_P1;SDS_P2;PMS_P1;PMS_P2;Temp;Humidity;BMP_temperature;BMP_pressure;BME280_temperature;BME280_humidity;BME280_pressure;Samples;Min_cycle;Max_cycle;Signal;HPM_P1;HPM_P2
2023/10/25 00:01:44;;;;;;;;;3.00;2.00;;;;;9.83;82.14;98598.09;5094776;28;8907;-57
2023/10/25 00:04:11;;;;;;;;;1.00;1.00;;;;;9.83;81.55;98592.78;5095405;28;8802;-57
2023/10/25 00:06:39;;;;;;;;;2.00;2.00;;;;;9.82;82.09;98600.91;5098459;28;8822;-57
2023/10/25 00:09:07;;;;;;;;;3.00;2.50;;;;;9.80;82.29;98590.41;5109689;28;8822;-59
2023/10/25 00:11:35;;;;;;;;;3.00;2.50;;;;;9.80;82.08;98586.94;5095336;28;8858;-59
2023/10/25 00:14:03;;;;;;;;;4.50;3.00;;;;;9.77;81.92;98593.38;5105686;28;8822;-57
2023/10/25 00:16:31;;;;;;;;;1.00;1.00;;;;;9.79;82.40;98585.28;5094588;28;8848;-59
2023/10/25 00:18:58;;;;;;;;;4.50;3.75;;;;;9.78;81.79;98571.13;5094537;28;8817;-59
2023/10/25 00:21:26;;;;;;;;;3.00;1.00;;;;;9.80;82.20;98576.31;5095123;28;8862;-57
2023/10/25 00:23:54;;;;;;;;;3.75;3.75;;;;;9.77;82.34;98572.13;5095021;28;8833;-56
2023/10/25 00:26:21;;;;;;;;;3.00;1.00;;;;;9.78;82.21;98580.94;5094665;28;8963;-58
2023/10/25 00:28:49;;;;;;;;;0.00;0.00;;;;;9.80;82.17;98590.41;5095117;28;8930;-57
2023/10/25 00:31:17;;;;;;;;;3.25;3.00;;;;;9.80;81.89;98586.94;5094331;28;8830;-57
2023/10/25 00:33:45;;;;;;;;;3.00;3.00;;;;;9.80;81.89;98582.44;5094503;28;8829;-58
2023/10/25 00:36:12;;;;;;;;;3.75;3.50;;;;;9.81;82.29;98581.44;5095184;28;8837;-58
2023/10/25 00:38:40;;;;;;;;;4.50;3.50;;;;;9.84;81.61;98580.31;5094611;28;8818;-59
2023/10/25 00:41:08;;;;;;;;;4.00;4.00;;;;;9.85;81.72;98574.84;5094308;28;8838;-58
2023/10/25 00:43:36;;;;;;;;;3.00;2.50;;;;;9.85;81.95;98585.50;5095073;28;8822;-58
2023/10/25 00:46:04;;;;;;;;;2.50;2.50;;;;;9.85;81.62;98588.16;5094576;28;8833;-56
2023/10/25 00:48:31;;;;;;;;;1.00;0.50;;;;;9.85;81.47;98585.50;5094849;28;8814;-57
2023/10/25 00:50:59;;;;;;;;;3.00;3.00;;;;;9.84;81.70;98582.97;5094995;28;8817;-57
2023/10/25 00:53:27;;;;;;;;;1.00;1.00;;;;;9.83;81.92;98574.19;5095051;28;9535;-57
2023/10/25 00:55:54;;;;;;;;;3.75;3.75;;;;;9.83;81.67;98576.00;5097543;28;8822;-59
2023/10/25 00:58:22;;;;;;;;;3.00;2.50;;;;;9.82;81.31;98572.50;5098675;28;8915;-56
2023/10/25 01:00:50;;;;;;;;;3.00;3.00;;;;;9.82;81.73;98585.81;5098636;28;9503;-57
2023/10/25 01:03:17;;;;;;;;;0.00;0.00;;;;;9.83;81.57;98583.97;5099216;28;8834;-57
2023/10/25 01:05:45;;;;;;;;;1.50;1.00;;;;;9.85;81.39;98585.50;5099573;28;8826;-59
2023/10/25 01:08:13;;;;;;;;;1.00;1.00;;;;;9.85;81.87;98581.97;5098449;28;8813;-57
2023/10/25 01:10:40;;;;;;;;;3.00;2.50;;;;;9.85;81.90;98580.19;5098501;28;8842;-57
2023/10/25 01:13:08;;;;;;;;;2.50;2.50;;;;;9.83;81.55;98582.16;5099340;28;8810;-57
2023/10/25 01:15:36;;;;;;;;;3.75;3.75;;;;;9.85;81.64;98574.00;5073071;28;8844;-57
2023/10/25 01:18:03;;;;;;;;;3.50;3.00;;;;;9.84;81.24;98572.34;5093307;28;8834;-57
2023/10/25 01:20:31;;;;;;;;;3.00;3.00;;;;;9.85;81.58;98569.53;5097452;28;8927;-58
2023/10/25 01:22:58;;;;;;;;;3.75;3.75;;;;;9.83;81.82;98560.88;5078280;28;8843;-56
2023/10/25 01:25:26;;;;;;;;;3.25;1.50;;;;;9.84;81.28;98567.03;5078084;28;8828;-59
2023/10/25 01:27:54;;;;;;;;;3.00;0.00;;;;;9.83;82.02;98560.03;5078702;28;8843;-57
2023/10/25 01:30:21;;;;;;;;;1.00;1.00;;;;;9.82;81.98;98559.22;5078083;28;8862;-57
2023/10/25 01:32:49;;;;;;;;;3.75;3.00;;;;;9.82;81.82;98569.00;5080724;28;8862;-59
2023/10/25 01:35:17;;;;;;;;;0.25;0.25;;;;;9.81;81.67;98565.50;5098956;28;8830;-59
2023/10/25 01:37:45;;;;;;;;;3.50;2.50;;;;;9.81;81.77;98565.50;5098079;28;8814;-58
2023/10/25 01:40:12;;;;;;;;;3.50;3.50;;;;;9.80;81.76;98569.16;5097969;28;8826;-60
2023/10/25 01:42:40;;;;;;;;;1.00;1.00;;;;;9.78;81.47;98562.34;5098613;28;8877;-57
2023/10/25 01:45:08;;;;;;;;;1.00;1.00;;;;;9.77;81.70;98577.44;5097775;28;8825;-56
2023/10/25 01:47:35;;;;;;;;;3.00;3.00;;;;;9.75;81.63;98563.47;5098072;28;8846;-58
2023/10/25 01:50:03;;;;;;;;;2.00;2.00;;;;;9.73;81.48;98570.72;5098347;28;8818;-57
2023/10/25 01:52:30;;;;;;;;;4.00;3.00;;;;;9.72;81.94;98563.75;5097808;28;8968;-57
2023/10/25 01:54:58;;;;;;;;;2.50;1.00;;;;;9.72;81.68;98560.28;5097914;28;9468;-59
2023/10/25 01:57:25;;;;;;;;;2.00;2.00;;;;;9.71;81.44;98567.41;5097981;28;8945;-59
2023/10/25 01:59:54;;;;;;;;;5.50;4.00;;;;;9.70;81.63;98556.91;5098215;28;8818;-57
2023/10/25 02:02:21;;;;;;;;;4.00;3.75;;;;;9.69;81.88;98550.78;5098002;28;8814;-57
2023/10/25 02:04:49;;;;;;;;;1.50;1.00;;;;;9.68;81.66;98550.91;5097946;28;8838;-57
2023/10/25 02:07:16;;;;;;;;;0.75;0.75;;;;;9.65;81.35;98551.22;5097620;28;8825;-58
2023/10/25 02:09:44;;;;;;;;;3.00;3.00;;;;;9.63;81.88;98537.25;5091416;28;8808;-57
2023/10/25 02:12:12;;;;;;;;;5.00;1.00;;;;;9.60;81.60;98546.38;5085531;28;8846;-57
2023/10/25 02:14:39;;;;;;;;;0.50;0.00;;;;;9.58;81.85;98550.97;5097598;28;8842;-56
2023/10/25 02:17:07;;;;;;;;;2.00;2.00;;;;;9.58;81.67;98532.38;5105279;28;8808;-58
2023/10/25 02:19:35;;;;;;;;;0.75;0.75;;;;;9.56;82.39;98534.34;5100957;28;8810;-59
2023/10/25 02:22:03;;;;;;;;;3.50;3.00;;;;;9.55;82.15;98535.34;5097706;28;8822;-57
2023/10/25 02:24:30;;;;;;;;;4.00;4.00;;;;;9.54;81.93;98535.47;5097260;28;8964;-57
2023/10/25 02:26:58;;;;;;;;;1.25;1.25;;;;;9.51;81.85;98531.31;5107533;28;8830;-57
2023/10/25 02:29:26;;;;;;;;;5.00;3.75;;;;;9.50;81.92;98520.84;5103566;28;8806;-57
2023/10/25 02:31:53;;;;;;;;;3.00;1.50;;;;;9.48;82.04;98530.78;5097217;28;8817;-59
2023/10/25 02:34:21;;;;;;;;;1.00;1.00;;;;;9.46;81.88;98536.25;5097278;28;9505;-58
2023/10/25 02:36:49;;;;;;;;;2.00;2.00;;;;;9.45;81.74;98526.59;5097300;28;8872;-59
2023/10/25 02:39:17;;;;;;;;;1.00;1.00;;;;;9.43;81.82;98520.59;5096887;28;8822;-57
2023/10/25 02:41:44;;;;;;;;;0.50;0.50;;;;;9.40;82.34;98514.72;5096781;28;8841;-59
2023/10/25 02:44:12;;;;;;;;;1.00;1.00;;;;;9.36;82.29;98524.84;5108212;28;8959;-59
2023/10/25 02:46:40;;;;;;;;;3.00;3.00;;;;;9.34;81.98;98523.31;5096572;28;8852;-57
2023/10/25 02:49:07;;;;;;;;;3.75;3.00;;;;;9.28;82.17;98526.56;5096774;28;8840;-59
2023/10/25 02:51:36;;;;;;;;;3.25;3.00;;;;;9.23;82.44;98520.84;5097275;28;8837;-60
2023/10/25 02:54:04;;;;;;;;;1.50;1.50;;;;;9.16;82.13;98517.13;5096935;28;8833;-59
2023/10/25 02:56:31;;;;;;;;;3.00;3.00;;;;;9.09;82.72;98506.28;5096727;28;8825;-57
2023/10/25 02:58:59;;;;;;;;;3.00;1.00;;;;;9.03;82.81;98506.84;5096866;28;8856;-59
2023/10/25 03:01:26;;;;;;;;;0.75;0.75;;;;;8.99;82.68;98500.19;5096936;28;8850;-58
2023/10/25 03:03:54;;;;;;;;;1.00;1.00;;;;;8.95;82.76;98503.28;5096386;28;8834;-57
2023/10/25 03:06:22;;;;;;;;;2.50;2.00;;;;;8.90;82.83;98494.91;5096937;28;9565;-57
2023/10/25 03:08:50;;;;;;;;;1.00;1.00;;;;;8.83;83.00;98492.00;5096577;28;8822;-57
2023/10/25 03:11:17;;;;;;;;;3.00;3.00;;;;;8.79;82.92;98493.28;5096187;28;9519;-58
2023/10/25 03:13:46;;;;;;;;;0.75;0.75;;;;;8.73;82.79;98491.22;5096616;28;9532;-57
2023/10/25 03:16:13;;;;;;;;;1.00;1.00;;;;;8.67;83.02;98497.09;5096613;28;8822;-56
2023/10/25 03:18:41;;;;;;;;;3.00;3.00;;;;;8.61;83.29;98495.03;5095676;28;8864;-59
2023/10/25 03:21:09;;;;;;;;;3.00;2.50;;;;;8.55;83.24;98490.31;5096927;28;8826;-58
2023/10/25 03:23:36;;;;;;;;;0.25;0.25;;;;;8.50;83.31;98492.56;5096449;28;8850;-59
2023/10/25 03:26:04;;;;;;;;;3.00;3.00;;;;;8.47;83.00;98479.59;5096245;28;8814;-57
2023/10/25 03:28:32;;;;;;;;;0.50;0.50;;;;;8.46;83.37;98475.28;5096491;28;8837;-59
2023/10/25 03:31:01;;;;;;;;;1.00;1.00;;;;;8.45;83.18;98473.56;5096300;28;8954;-57
2023/10/25 03:33:29;;;;;;;;;1.50;1.50;;;;;8.47;83.27;98474.28;5096273;28;8826;-57
2023/10/25 03:35:56;;;;;;;;;3.00;1.00;;;;;8.48;83.45;98468.00;5096345;28;8860;-59
2023/10/25 03:38:24;;;;;;;;;1.00;1.00;;;;;8.49;83.07;98468.81;5095676;28;8856;-59
2023/10/25 03:40:52;;;;;;;;;2.00;1.50;;;;;8.50;83.23;98466.03;5095788;28;8837;-59
2023/10/25 03:43:19;;;;;;;;;0.00;0.00;;;;;8.50;82.69;98466.03;5096001;28;8829;-57
2023/10/25 03:45:47;;;;;;;;;3.00;3.00;;;;;8.51;83.51;98459.72;5096388;28;8844;-57
2023/10/25 03:48:14;;;;;;;;;1.00;1.00;;;;;8.49;82.97;98453.75;5095529;28;9553;-59
2023/10/25 03:50:42;;;;;;;;;2.50;1.50;;;;;8.48;82.76;98453.88;5095771;28;8828;-59
2023/10/25 03:53:10;;;;;;;;;1.00;1.00;;;;;8.46;83.08;98447.91;5095724;28;8825;-59
2023/10/25 03:55:38;;;;;;;;;2.50;0.75;;;;;8.42;83.26;98444.69;5095739;28;8917;-57
2023/10/25 03:58:05;;;;;;;;;1.00;1.00;;;;;8.39;83.09;98436.19;5095309;28;8832;-57
2023/10/25 04:00:33;;;;;;;;;1.50;1.00;;;;;8.37;83.40;98444.28;5095523;28;9590;-57
2023/10/25 04:03:00;;;;;;;;;2.00;1.00;;;;;8.35;83.30;98437.47;5095559;28;9533;-59
2023/10/25 04:05:28;;;;;;;;;1.00;1.00;;;;;8.34;83.45;98444.59;5095305;28;8853;-58
2023/10/25 04:07:56;;;;;;;;;0.75;0.50;;;;;8.33;83.19;98429.66;5094804;28;8844;-57
2023/10/25 04:10:23;;;;;;;;;3.00;3.00;;;;;8.32;83.04;98433.31;5094745;28;9843;-57
2023/10/25 04:12:51;;;;;;;;;2.50;2.50;;;;;8.33;83.30;98437.63;5095139;28;8903;-57
2023/10/25 04:15:19;;;;;;;;;1.00;1.00;;;;;8.33;82.96;98434.97;5095432;28;8842;-57
2023/10/25 04:17:47;;;;;;;;;2.50;2.00;;;;;8.34;83.17;98431.34;5095401;28;8984;-58
2023/10/25 04:20:14;;;;;;;;;2.50;2.50;;;;;8.39;82.81;98428.25;5095221;28;8960;-57
2023/10/25 04:22:42;;;;;;;;;1.00;1.00;;;;;8.44;82.88;98424.16;5095356;28;8829;-57
2023/10/25 04:25:10;;;;;;;;;4.00;3.25;;;;;8.50;82.86;98431.53;5094775;28;8853;-57
2023/10/25 04:27:37;;;;;;;;;1.00;1.00;;;;;8.55;82.99;98431.94;5094951;28;8857;-58
2023/10/25 04:30:06;;;;;;;;;1.50;1.00;;;;;8.58;82.75;98425.53;5094142;28;8810;-57
2023/10/25 04:32:34;;;;;;;;;1.50;1.50;;;;;8.60;82.69;98429.66;5094977;28;8818;-59
2023/10/25 04:35:01;;;;;;;;;3.00;3.00;;;;;8.61;82.63;98415.44;5094437;28;8819;-56
2023/10/25 04:37:29;;;;;;;;;1.00;1.00;;;;;8.63;82.67;98429.41;5086535;28;8816;-58
2023/10/25 04:39:57;;;;;;;;;4.50;4.50;;;;;8.64;82.57;98419.59;5074197;28;8816;-57
2023/10/25 04:42:25;;;;;;;;;3.00;3.00;;;;;8.62;82.36;98422.41;5074510;28;8882;-58
2023/10/25 04:44:52;;;;;;;;;2.00;2.00;;;;;8.61;82.37;98420.75;5074578;28;8832;-56
2023/10/25 04:47:20;;;;;;;;;3.00;3.00;;;;;8.58;82.54;98429.00;5074711;28;9567;-57
2023/10/25 04:49:48;;;;;;;;;4.00;4.00;;;;;8.54;82.40;98424.97;5056854;28;8841;-56
2023/10/25 04:52:16;;;;;;;;;3.50;3.00;;;;;8.54;82.99;98430.28;5054278;28;8818;-56
2023/10/25 04:54:44;;;;;;;;;3.50;3.50;;;;;8.54;83.03;98430.28;5054211;28;8869;-58
2023/10/25 04:57:12;;;;;;;;;2.00;1.00;;;;;8.56;82.39;98423.00;5054184;28;8852;-56
2023/10/25 04:59:39;;;;;;;;;2.00;2.00;;;;;8.56;82.70;98417.69;5066221;28;9458;-57
2023/10/25 05:02:07;;;;;;;;;3.00;3.00;;;;;8.55;82.51;98413.38;5092903;28;8832;-57
2023/10/25 05:04:36;;;;;;;;;3.00;3.00;;;;;8.57;82.78;98410.56;5087825;28;8827;-57
2023/10/25 05:07:03;;;;;;;;;1.00;1.00;;;;;8.59;82.64;98406.78;5074158;28;8844;-57
2023/10/25 05:09:31;;;;;;;;;6.75;6.00;;;;;8.60;82.67;98403.13;5074104;28;8824;-56
2023/10/25 05:12:00;;;;;;;;;6.00;4.50;;;;;8.64;82.42;98390.41;5080118;28;8976;-57
2023/10/25 05:14:27;;;;;;;;;3.50;3.00;;;;;8.68;82.15;98395.28;5093742;28;8838;-57
2023/10/25 05:16:57;;;;;;;;;3.00;3.00;;;;;8.74;82.11;98378.75;5094407;28;8854;-57
2023/10/25 05:19:25;;;;;;;;;3.00;3.00;;;;;8.80;81.95;98377.34;5093282;28;8846;-59
2023/10/25 05:21:54;;;;;;;;;3.25;3.25;;;;;8.86;82.13;98384.69;5093459;28;8818;-57
2023/10/25 05:24:21;;;;;;;;;3.50;3.50;;;;;8.92;81.52;98377.00;5093205;28;8833;-57
2023/10/25 05:26:49;;;;;;;;;3.75;3.25;;;;;8.98;81.88;98370.25;5093461;28;8849;-59
2023/10/25 05:29:17;;;;;;;;;4.00;4.00;;;;;9.03;81.66;98367.97;5093177;28;8834;-57
2023/10/25 05:31:45;;;;;;;;;2.50;2.50;;;;;9.08;81.67;98371.84;5092806;28;8822;-57
2023/10/25 05:34:15;;;;;;;;;3.00;3.00;;;;;9.13;81.61;98363.41;5093286;28;8822;-59
2023/10/25 05:36:43;;;;;;;;;3.00;2.50;;;;;9.19;81.52;98368.94;5092525;28;8822;-57
2023/10/25 05:39:11;;;;;;;;;1.00;1.00;;;;;9.23;81.57;98365.00;5093035;28;9519;-57
2023/10/25 05:41:38;;;;;;;;;3.00;1.00;;;;;9.26;81.26;98361.22;5094748;28;8834;-58
2023/10/25 05:44:06;;;;;;;;;3.00;2.50;;;;;9.30;81.06;98352.78;5095809;28;8907;-59
2023/10/25 05:46:33;;;;;;;;;4.00;4.00;;;;;9.34;81.32;98356.78;5095756;28;8826;-59
2023/10/25 05:49:01;;;;;;;;;3.00;3.00;;;;;9.36;81.11;98349.53;5095864;28;8918;-58
2023/10/25 05:51:31;;;;;;;;;3.00;1.50;;;;;9.39;81.13;98351.88;5095745;28;8825;-57
2023/10/25 05:53:59;;;;;;;;;3.50;3.00;;;;;9.40;81.02;98353.53;5096505;28;8854;-57
2023/10/25 05:56:27;;;;;;;;;2.00;2.00;;;;;9.41;81.44;98352.53;5095592;28;8829;-59
2023/10/25 05:58:54;;;;;;;;;1.00;1.00;;;;;9.43;81.10;98361.19;5096258;28;8852;-59
2023/10/25 06:01:22;;;;;;;;;4.00;4.00;;;;;9.42;80.91;98359.53;5096033;28;8822;-57
2023/10/25 06:03:50;;;;;;;;;3.50;3.00;;;;;9.43;81.16;98361.19;5095606;28;9764;-57
2023/10/25 06:06:18;;;;;;;;;4.00;3.00;;;;;9.45;81.00;98361.88;5095958;28;9499;-58
2023/10/25 06:08:45;;;;;;;;;3.00;3.00;;;;;9.47;81.14;98364.38;5095782;28;9499;-57
2023/10/25 06:11:13;;;;;;;;;1.00;1.00;;;;;9.51;80.84;98358.63;5094945;28;8861;-59
2023/10/25 06:13:41;;;;;;;;;2.25;2.00;;;;;9.56;81.05;98353.66;5095505;28;8864;-57
2023/10/25 06:16:08;;;;;;;;;1.50;1.00;;;;;9.59;81.10;98350.72;5095391;28;8872;-58
2023/10/25 06:18:37;;;;;;;;;1.00;1.00;;;;;9.61;80.84;98354.03;5095833;28;8822;-57
2023/10/25 06:21:04;;;;;;;;;3.25;3.25;;;;;9.64;81.00;98358.22;5094605;28;8829;-57
2023/10/25 06:23:32;;;;;;;;;4.00;1.00;;;;;9.67;80.85;98363.22;5095419;28;8841;-58
2023/10/25 06:26:00;;;;;;;;;3.00;3.00;;;;;9.72;80.79;98345.78;5094973;28;8848;-58
2023/10/25 06:28:29;;;;;;;;;2.00;2.00;;;;;9.78;80.71;98350.50;5094965;28;8838;-57
2023/10/25 06:30:56;;;;;;;;;2.00;2.00;;;;;9.83;80.78;98342.03;5095087;28;8842;-60
2023/10/25 06:33:25;;;;;;;;;0.50;0.50;;;;;9.87;80.39;98332.78;5094560;28;8852;-58
2023/10/25 06:35:52;;;;;;;;;2.00;1.50;;;;;9.90;80.43;98333.31;5094805;28;8952;-59
2023/10/25 06:38:20;;;;;;;;;6.75;4.00;;;;;9.95;79.85;98330.97;5094872;28;8830;-56
2023/10/25 06:40:48;;;;;;;;;1.00;1.00;;;;;9.98;80.18;98328.03;5094713;28;8849;-57
2023/10/25 06:43:15;;;;;;;;;3.50;3.00;;;;;10.03;80.39;98320.44;5095698;28;8822;-57
2023/10/25 06:45:43;;;;;;;;;3.00;2.50;;;;;10.06;80.40;98320.13;5094625;28;8834;-60
2023/10/25 06:48:11;;;;;;;;;2.50;2.50;;;;;10.08;80.29;98314.66;5095059;28;8948;-57
2023/10/25 06:50:39;;;;;;;;;3.50;3.25;;;;;10.08;80.06;98318.13;5095688;28;8861;-59
2023/10/25 06:53:07;;;;;;;;;3.00;3.00;;;;;10.09;80.39;98311.00;5095656;28;8872;-58
2023/10/25 06:55:34;;;;;;;;;2.00;2.00;;;;;10.11;80.40;98307.16;5095346;28;8869;-59
2023/10/25 06:58:02;;;;;;;;;5.00;3.75;;;;;10.16;80.17;98306.72;5094121;28;8927;-57
2023/10/25 07:00:30;;;;;;;;;3.00;2.50;;;;;10.24;79.64;98298.78;5094334;28;8822;-60
2023/10/25 07:03:01;;;;;;;;;2.00;1.00;;;;;10.30;79.99;98303.44;5094244;28;8852;-57
2023/10/25 07:05:29;;;;;;;;;3.00;1.50;;;;;10.35;79.75;98299.31;5093727;28;8868;-57
2023/10/25 07:07:59;;;;;;;;;2.50;2.00;;;;;10.43;79.98;98288.69;5093925;28;8829;-58
2023/10/25 07:10:26;;;;;;;;;3.00;3.00;;;;;10.52;79.89;98277.06;5095236;28;8836;-57
2023/10/25 07:12:54;;;;;;;;;3.00;1.50;;;;;10.61;79.16;98267.28;5094614;28;8830;-57
2023/10/25 07:15:24;;;;;;;;;0.00;0.00;;;;;10.69;79.62;98262.78;5094730;28;8834;-57
2023/10/25 07:17:52;;;;;;;;;2.00;2.00;;;;;10.78;79.25;98256.47;5095051;28;9713;-57
2023/10/25 07:20:20;;;;;;;;;1.00;1.00;;;;;10.88;78.69;98254.50;5095225;28;8837;-58
2023/10/25 07:22:48;;;;;;;;;1.50;0.75;;;;;10.95;79.21;98257.34;5094558;28;8822;-58
2023/10/25 07:25:15;;;;;;;;;3.00;1.00;;;;;11.01;78.82;98254.03;5093792;28;8818;-59
2023/10/25 07:27:43;;;;;;;;;3.00;1.00;;;;;11.06;78.58;98247.19;5094085;28;8841;-57
2023/10/25 07:30:11;;;;;;;;;1.00;1.00;;;;;11.12;78.61;98243.00;5093362;28;8849;-57
2023/10/25 07:32:40;;;;;;;;;1.00;1.00;;;;;11.16;79.00;98229.19;5094029;28;8956;-58
2023/10/25 07:35:08;;;;;;;;;2.50;2.00;;;;;11.20;78.47;98235.88;5094836;28;8907;-58
2023/10/25 07:37:36;;;;;;;;;2.00;2.00;;;;;11.24;78.57;98233.69;5094734;28;8854;-58
2023/10/25 07:40:05;;;;;;;;;1.00;1.00;;;;;11.29;78.48;98234.03;5094815;28;8830;-57
2023/10/25 07:42:33;;;;;;;;;1.00;1.00;;;;;11.34;78.36;98232.53;5094990;28;9512;-59
2023/10/25 07:45:01;;;;;;;;;1.00;1.00;;;;;11.42;78.26;98235.19;5094645;28;8992;-60
2023/10/25 07:47:29;;;;;;;;;1.50;1.00;;;;;11.50;78.29;98227.16;5094765;28;8834;-58
2023/10/25 07:49:56;;;;;;;;;1.00;1.00;;;;;11.58;78.01;98216.50;5094723;28;9503;-58
2023/10/25 07:52:25;;;;;;;;;0.25;0.00;;;;;11.69;78.27;98204.66;5094411;28;9561;-57
2023/10/25 07:54:53;;;;;;;;;0.00;0.00;;;;;11.81;78.10;98198.78;5092740;28;8861;-57
2023/10/25 07:57:22;;;;;;;;;3.25;2.00;;;;;11.93;77.13;98192.06;5092018;28;8842;-58
2023/10/25 07:59:53;;;;;;;;;1.00;1.00;;;;;12.07;77.18;98192.16;5092155;28;8917;-59
2023/10/25 08:02:21;;;;;;;;;3.00;3.00;;;;;12.22;77.33;98189.56;5091584;28;8826;-58
2023/10/25 08:04:49;;;;;;;;;1.00;0.75;;;;;12.33;77.00;98184.69;5092501;28;8838;-58
2023/10/25 08:07:16;;;;;;;;;0.00;0.00;;;;;12.47;76.50;98186.56;5091678;28;8873;-58
2023/10/25 08:09:46;;;;;;;;;2.00;2.00;;;;;12.62;76.25;98186.66;5092348;28;8818;-57
2023/10/25 08:12:14;;;;;;;;;1.00;1.00;;;;;12.76;76.31;98176.03;5093702;28;8868;-59
2023/10/25 08:14:42;;;;;;;;;1.50;1.50;;;;;12.86;76.38;98165.09;5092647;28;8833;-58
2023/10/25 08:17:10;;;;;;;;;3.00;2.00;;;;;12.91;75.51;98162.72;5094284;28;8850;-58
2023/10/25 08:19:38;;;;;;;;;3.00;1.00;;;;;12.94;75.95;98157.00;5094764;28;8850;-58
2023/10/25 08:22:06;;;;;;;;;3.00;1.00;;;;;12.97;75.69;98156.66;5094696;28;8826;-60
2023/10/25 08:24:34;;;;;;;;;0.50;0.50;;;;;13.00;75.95;98161.69;5093545;28;8876;-57
2023/10/25 08:27:02;;;;;;;;;1.00;1.00;;;;;13.03;75.78;98161.31;5093494;28;8841;-58
2023/10/25 08:29:30;;;;;;;;;0.00;0.00;;;;;13.06;75.84;98153.75;5094170;28;8918;-58
2023/10/25 08:31:58;;;;;;;;;1.00;1.00;;;;;13.06;75.89;98150.28;5093549;28;8830;-57
2023/10/25 08:34:26;;;;;;;;;0.00;0.00;;;;;13.06;75.94;98150.28;5092905;28;8845;-58
2023/10/25 08:36:54;;;;;;;;;0.00;0.00;;;;;13.05;76.40;98144.09;5092420;28;8826;-58
2023/10/25 08:39:22;;;;;;;;;1.00;1.00;;;;;13.04;76.22;98141.59;5094219;28;9573;-58
2023/10/25 08:41:53;;;;;;;;;1.00;1.00;;;;;13.01;75.85;98142.78;5093899;28;8845;-58
2023/10/25 08:44:21;;;;;;;;;0.75;0.75;;;;;13.00;75.89;98145.63;5094214;28;8976;-57
2023/10/25 08:46:50;;;;;;;;;1.00;1.00;;;;;12.97;76.27;98137.97;5094306;28;8905;-58
2023/10/25 08:49:18;;;;;;;;;0.25;0.25;;;;;12.95;76.35;98142.66;5094016;28;8834;-58
2023/10/25 08:51:46;;;;;;;;;0.00;0.00;;;;;12.94;76.08;98143.66;5093572;28;8864;-58
2023/10/25 08:54:14;;;;;;;;;0.50;0.25;;;;;12.95;75.80;98140.00;5093724;28;8825;-57
2023/10/25 08:56:41;;;;;;;;;0.00;0.00;;;;;12.97;76.05;98136.13;5094068;28;8845;-60
2023/10/25 08:59:10;;;;;;;;;0.00;0.00;;;;;12.99;75.86;98130.63;5093567;28;8850;-57
2023/10/25 09:01:38;;;;;;;;;0.00;0.00;;;;;13.03;75.91;98134.56;5094159;28;8814;-58
2023/10/25 09:04:05;;;;;;;;;0.00;0.00;;;;;13.07;75.39;98142.03;5093811;28;8822;-59
2023/10/25 09:06:33;;;;;;;;;0.00;0.00;;;;;13.13;75.28;98135.97;5094416;28;8842;-58
2023/10/25 09:09:02;;;;;;;;;0.00;0.00;;;;;13.22;75.40;98134.06;5094138;28;8845;-58
2023/10/25 09:11:31;;;;;;;;;0.00;0.00;;;;;13.31;75.05;98116.91;5094187;28;8841;-58
2023/10/25 09:13:59;;;;;;;;;0.00;0.00;;;;;13.39;75.07;98112.34;5093775;28;8860;-58
2023/10/25 09:16:28;;;;;;;;;0.00;0.00;;;;;13.45;75.09;98116.91;5095991;28;8834;-58
2023/10/25 09:18:55;;;;;;;;;1.00;1.00;;;;;13.49;74.54;98095.97;5097398;28;8830;-60
2023/10/25 09:21:24;;;;;;;;;0.00;0.00;;;;;13.50;74.86;98108.34;5096945;28;8850;-57
2023/10/25 09:23:54;;;;;;;;;0.00;0.00;;;;;13.50;74.83;98094.97;5097771;28;8818;-58
2023/10/25 09:26:23;;;;;;;;;1.00;0.00;;;;;13.52;74.79;98099.13;5096931;28;8918;-58
2023/10/25 09:28:51;;;;;;;;;0.00;0.00;;;;;13.52;74.80;98092.97;5096798;28;8866;-58
2023/10/25 09:31:23;;;;;;;;;0.00;0.00;;;;;13.52;74.74;98087.59;5097242;28;8822;-58
2023/10/25 09:33:51;;;;;;;;;1.00;1.00;;;;;13.53;74.74;98091.94;5097279;28;8872;-58
2023/10/25 09:36:22;;;;;;;;;0.00;0.00;;;;;13.52;74.69;98083.06;5097557;28;8923;-58
2023/10/25 09:38:49;;;;;;;;;0.00;0.00;;;;;13.50;75.20;98073.56;5097188;28;8910;-58
2023/10/25 09:41:18;;;;;;;;;0.75;0.75;;;;;13.47;75.05;98071.28;5096341;28;8907;-58
2023/10/25 09:43:46;;;;;;;;;0.00;0.00;;;;;13.43;75.69;98064.66;5095826;28;8968;-58
2023/10/25 09:46:13;;;;;;;;;1.00;1.00;;;;;13.39;75.07;98068.72;5096137;28;8838;-59
2023/10/25 09:48:41;;;;;;;;;1.00;0.75;;;;;13.34;75.41;98071.09;5096242;28;8893;-58
2023/10/25 09:51:11;;;;;;;;;0.00;0.00;;;;;13.33;75.12;98064.09;5095734;28;8830;-60
2023/10/25 09:53:39;;;;;;;;;0.50;0.50;;;;;13.32;75.51;98057.94;5096080;28;8826;-58
2023/10/25 09:56:07;;;;;;;;;0.00;0.00;;;;;13.30;74.85;98037.75;5095403;28;8851;-58
2023/10/25 09:58:35;;;;;;;;;0.00;0.00;;;;;13.28;75.43;98035.25;5096981;28;8854;-57
2023/10/25 10:01:03;;;;;;;;;0.00;0.00;;;;;13.26;75.39;98023.91;5095563;28;8841;-58
2023/10/25 10:03:32;;;;;;;;;0.00;0.00;;;;;13.26;75.30;98017.72;5096162;28;8848;-58
2023/10/25 10:06:00;;;;;;;;;0.50;0.00;;;;;13.23;74.74;98008.22;5095426;28;8952;-58
2023/10/25 10:08:28;;;;;;;;;0.50;0.50;;;;;13.21;75.28;98010.28;5095691;28;8850;-57
2023/10/25 10:10:57;;;;;;;;;0.00;0.00;;;;;13.18;75.45;98013.31;5094842;28;8930;-58
2023/10/25 10:13:26;;;;;;;;;0.00;0.00;;;;;13.15;75.39;98005.66;5095523;28;8952;-58
2023/10/25 10:15:57;;;;;;;;;0.75;0.25;;;;;13.14;75.05;98008.53;5095651;28;8849;-58
2023/10/25 10:18:26;;;;;;;;;0.00;0.00;;;;;13.11;75.73;97993.69;5094944;28;8846;-61
2023/10/25 10:20:54;;;;;;;;;1.00;1.00;;;;;13.09;75.29;97993.06;5095977;28;8838;-57
2023/10/25 10:23:22;;;;;;;;;0.00;0.00;;;;;13.08;75.58;97993.25;5095368;28;8880;-58
2023/10/25 10:25:55;;;;;;;;;0.00;0.00;;;;;13.05;75.34;97978.41;5095496;28;8842;-58
2023/10/25 10:28:23;;;;;;;;;0.50;0.50;;;;;13.03;75.19;97977.78;5094494;28;8960;-58
2023/10/25 10:30:52;;;;;;;;;0.25;0.25;;;;;13.02;75.97;97973.44;5094603;28;8873;-57
2023/10/25 10:33:20;;;;;;;;;0.75;0.75;;;;;12.99;75.90;97959.63;5094957;28;8833;-58
2023/10/25 10:35:48;;;;;;;;;0.25;0.25;;;;;12.96;76.12;97970.66;5094761;28;8848;-59
2023/10/25 10:38:17;;;;;;;;;0.00;0.00;;;;;12.94;75.18;97961.97;5095443;28;8826;-60
2023/10/25 10:40:45;;;;;;;;;1.00;0.50;;;;;12.92;75.75;97964.81;5094238;28;8853;-58
2023/10/25 10:43:13;;;;;;;;;1.00;1.00;;;;;12.90;75.74;97950.84;5095020;28;8830;-58
2023/10/25 10:45:45;;;;;;;;;0.25;0.25;;;;;12.92;75.88;97950.66;5095431;28;8842;-59
2023/10/25 10:48:14;;;;;;;;;0.00;0.00;;;;;12.91;75.90;97949.00;5095671;28;8838;-58
2023/10/25 10:50:43;;;;;;;;;0.00;0.00;;;;;12.91;76.20;97949.00;5095734;28;8861;-58
2023/10/25 10:53:11;;;;;;;;;0.75;0.75;;;;;12.91;75.95;97939.13;5094736;28;8846;-58
2023/10/25 10:55:40;;;;;;;;;0.50;0.25;;;;;12.93;75.56;97941.63;5094511;28;8826;-60
2023/10/25 10:58:08;;;;;;;;;0.00;0.00;;;;;12.94;76.13;97927.25;5095292;28;8837;-58
2023/10/25 11:00:36;;;;;;;;;0.00;0.00;;;;;12.97;75.77;97933.09;5095271;28;8846;-58
2023/10/25 11:03:04;;;;;;;;;0.00;0.00;;;;;12.98;75.43;97928.59;5094752;28;9573;-58
2023/10/25 11:05:36;;;;;;;;;0.25;0.00;;;;;12.98;76.17;97923.25;5094572;28;8845;-59
2023/10/25 11:08:05;;;;;;;;;0.00;0.00;;;;;12.99;75.88;97917.69;5094481;28;8825;-58
2023/10/25 11:10:36;;;;;;;;;1.00;1.00;;;;;13.01;75.91;97912.16;5094598;28;8857;-58
2023/10/25 11:13:04;;;;;;;;;0.50;0.50;;;;;13.02;75.76;97905.81;5094054;28;8822;-58
2023/10/25 11:15:32;;;;;;;;;1.00;1.00;;;;;13.01;75.80;97899.66;5095337;28;8833;-58
2023/10/25 11:18:03;;;;;;;;;0.00;0.00;;;;;13.00;75.32;97903.31;5094527;28;8845;-58
2023/10/25 11:20:31;;;;;;;;;0.00;0.00;;;;;12.98;75.53;97889.31;5095185;28;8885;-58
2023/10/25 11:22:59;;;;;;;;;0.50;0.50;;;;;12.97;75.43;97884.16;5092785;28;8956;-57
2023/10/25 11:25:27;;;;;;;;;0.00;0.00;;;;;12.97;76.16;97884.16;5093033;28;9512;-59
2023/10/25 11:27:57;;;;;;;;;2.00;0.50;;;;;12.97;75.53;97876.13;5094311;28;8830;-59
2023/10/25 11:30:28;;;;;;;;;0.00;0.00;;;;;12.97;75.43;97873.47;5095249;28;8975;-58
2023/10/25 11:32:56;;;;;;;;;1.00;1.00;;;;;12.98;75.70;97870.63;5094802;28;8847;-58
2023/10/25 11:35:27;;;;;;;;;0.75;0.75;;;;;12.97;75.47;97857.44;5094810;28;8841;-59
2023/10/25 11:38:00;;;;;;;;;4.50;1.00;;;;;12.98;75.42;97856.44;5094353;28;8843;-58
2023/10/25 11:40:32;;;;;;;;;1.00;1.00;;;;;12.97;75.45;97857.44;5093086;28;9724;-58
2023/10/25 11:43:03;;;;;;;;;1.00;1.00;;;;;12.94;75.53;97847.97;5094224;28;9566;-58
2023/10/25 11:45:31;;;;;;;;;1.00;1.00;;;;;12.92;75.25;97849.94;5095101;28;9760;-58
2023/10/25 11:48:03;;;;;;;;;1.00;1.00;;;;;12.89;75.78;97839.66;5094527;28;8838;-60
2023/10/25 11:50:31;;;;;;;;;2.50;1.00;;;;;12.87;75.62;97830.16;5094313;28;8883;-58